Time;durP1;ratioP1;P1;durP2;ratioP2;P2;SDS_P1;SDS_P2;PMS_P1;PMS_P2;Temp;Humidity;BMP_temperature;BMP_pressure;BME280_temperature;BME280_humidity;BME280_pressure;Samples;Min_cycle;Max_cycle;Signal;HPM_P1;HPM_P2
2021/10/22 00:01:43;;;;;;;1.90;0.70;;;;;;;12.75;45.16;98228.60;236658;1193;139475;-62
2021/10/22 00:06:47;;;;;;;118.90;85.90;;;;;;;12.74;45.07;98236.86;236779;1192;138703;-60
2021/10/22 00:11:50;;;;;;;5.00;1.30;;;;;;;12.80;45.05;98244.70;236678;1193;138797;-58
2021/10/22 00:16:56;;;;;;;2.40;0.90;;;;;;;12.83;45.06;98247.20;236722;1193;138468;-60
2021/10/22 00:22:00;;;;;;;2.60;1.00;;;;;;;12.82;44.87;98255.08;236711;1193;139234;-65
2021/10/22 00:27:04;;;;;;;3.40;1.50;;;;;;;12.81;44.63;98256.02;236632;1193;138374;-60
2021/10/22 00:32:08;;;;;;;5.00;2.10;;;;;;;12.82;44.69;98262.91;236530;1193;140091;-63
2021/10/22 00:37:13;;;;;;;4.20;0.90;;;;;;;12.84;44.68;98251.66;236659;1193;138199;-60
2021/10/22 00:42:17;;;;;;;6.50;1.00;;;;;;;12.86;44.37;98246.69;236319;1193;138552;-61
2021/10/22 00:47:20;;;;;;;3.90;1.10;;;;;;;12.84;44.69;98240.66;237130;1193;138406;-59
2021/10/22 00:52:28;;;;;;;1.70;0.70;;;;;;;12.84;44.77;98243.48;236684;1193;138072;-58
2021/10/22 00:57:31;;;;;;;4.80;0.70;;;;;;;12.85;44.56;98246.78;236671;1193;138393;-61
2021/10/22 01:02:37;;;;;;;;;;;;;;;12.83;44.69;98254.42;236850;1192;138665;-62
2021/10/22 01:07:42;;;;;;;1.80;0.70;;;;;;;12.80;44.68;98248.11;236929;1187;124828;-62
2021/10/22 01:12:45;;;;;;;2.10;0.80;;;;;;;12.76;44.69;98250.20;236532;1193;139219;-61
2021/10/22 01:17:48;;;;;;;4.80;0.80;;;;;;;12.73;44.78;98258.31;236406;1193;138584;-61
2021/10/22 01:22:53;;;;;;;4.00;1.10;;;;;;;12.70;44.80;98267.63;236801;1193;139051;-57
2021/10/22 01:27:56;;;;;;;5.00;1.20;;;;;;;12.68;44.86;98270.81;236550;1192;138694;-60
2021/10/22 01:33:05;;;;;;;3.80;0.90;;;;;;;12.65;45.09;98264.34;236717;1192;138541;-62
2021/10/22 01:38:08;;;;;;;2.30;0.90;;;;;;;12.61;45.15;98268.77;236946;1192;139329;-60
2021/10/22 01:43:12;;;;;;;5.30;0.90;;;;;;;12.60;45.26;98264.27;236645;1193;138666;-59
2021/10/22 01:48:15;;;;;;;1.50;0.70;;;;;;;12.58;45.26;98256.04;236428;1194;138239;-60
2021/10/22 01:53:19;;;;;;;6.30;1.00;;;;;;;12.52;45.48;98254.68;236765;1193;138905;-63
2021/10/22 01:58:22;;;;;;;3.20;0.70;;;;;;;12.52;45.65;98269.84;236819;1192;138759;-58
2021/10/22 02:03:31;;;;;;;7.40;1.20;;;;;;;12.52;45.74;98277.98;236563;1193;138926;-62
2021/10/22 02:08:35;;;;;;;4.10;1.00;;;;;;;12.52;45.85;98272.83;236768;1193;139493;-60
2021/10/22 02:13:38;;;;;;;1.50;0.80;;;;;;;12.50;45.82;98266.60;236611;1193;138927;-64
2021/10/22 02:18:41;;;;;;;4.20;0.80;;;;;;;12.47;45.96;98272.75;236649;1193;138580;-61
2021/10/22 02:23:44;;;;;;;5.70;1.10;;;;;;;12.45;46.01;98267.70;236598;1193;138809;-62
2021/10/22 02:28:49;;;;;;;2.70;0.70;;;;;;;12.46;46.05;98272.84;236849;1193;138559;-61
2021/10/22 02:33:52;;;;;;;4.10;0.90;;;;;;;12.45;46.19;98280.36;236719;1193;139285;-62
2021/10/22 02:38:55;;;;;;;7.80;1.20;;;;;;;12.44;46.46;98281.73;236717;1193;138393;-59
2021/10/22 02:43:58;;;;;;;4.30;1.10;;;;;;;12.38;46.36;98280.95;236579;1193;139341;-58
2021/10/22 02:49:03;;;;;;;4.70;1.00;;;;;;;12.33;46.63;98276.89;236713;1193;138229;-61
2021/10/22 02:54:06;;;;;;;3.90;0.80;;;;;;;12.30;46.82;98298.00;236825;1193;139526;-58
2021/10/22 02:59:10;;;;;;;2.80;1.00;;;;;;;12.27;46.83;98315.64;236454;1193;138330;-61
2021/10/22 03:04:13;;;;;;;2.90;1.10;;;;;;;12.25;47.12;98328.91;236604;1193;138703;-61
2021/10/22 03:09:16;;;;;;;4.80;1.20;;;;;;;12.24;47.19;98332.20;236577;1193;138278;-60
2021/10/22 03:14:20;;;;;;;4.60;1.40;;;;;;;12.25;47.19;98342.87;236569;1193;138357;-60
2021/10/22 03:19:24;;;;;;;3.10;1.30;;;;;;;12.26;47.33;98364.30;236726;1193;138804;-64
2021/10/22 03:24:27;;;;;;;7.30;1.40;;;;;;;12.29;47.59;98376.51;236580;1193;138624;-61
2021/10/22 03:29:30;;;;;;;5.30;1.20;;;;;;;12.31;47.52;98388.61;236644;1193;138657;-64
2021/10/22 03:34:34;;;;;;;5.50;1.20;;;;;;;12.33;47.55;98401.82;236502;1193;138321;-62
2021/10/22 03:39:37;;;;;;;3.70;1.10;;;;;;;12.29;47.83;98404.89;236510;1193;138273;-61
2021/10/22 03:44:40;;;;;;;5.50;1.50;;;;;;;12.25;47.78;98412.58;236790;1193;137926;-59
2021/10/22 03:49:43;;;;;;;3.60;1.40;;;;;;;12.15;47.87;98424.70;236714;1193;138613;-60
2021/10/22 03:54:46;;;;;;;6.60;1.70;;;;;;;12.10;48.01;98432.54;236614;1193;138505;-60
2021/10/22 03:59:49;;;;;;;5.80;1.00;;;;;;;12.05;47.76;98440.20;236645;1193;139984;-60
2021/10/22 04:04:52;;;;;;;8.90;1.50;;;;;;;11.99;48.31;98441.06;237027;1192;139638;-59
2021/10/22 04:09:55;;;;;;;3.10;1.30;;;;;;;11.95;48.18;98441.42;236538;1193;138313;-62
2021/10/22 04:14:59;;;;;;;2.40;1.20;;;;;;;11.92;48.48;98447.84;236664;1193;138404;-65
2021/10/22 04:20:06;;;;;;;4.30;1.60;;;;;;;11.87;48.52;98460.32;236617;1193;139829;-61
2021/10/22 04:25:09;;;;;;;5.20;1.20;;;;;;;11.81;48.73;98464.11;236562;1193;140224;-59
2021/10/22 04:30:12;;;;;;;1.50;1.10;;;;;;;11.77;48.84;98471.02;236344;1193;139647;-58
2021/10/22 04:35:15;;;;;;;4.60;0.90;;;;;;;11.72;48.97;98475.14;236756;1193;138645;-57
2021/10/22 04:40:31;;;;;;;3.10;0.90;;;;;;;11.61;49.48;98477.21;236627;1193;138754;-59
2021/10/22 04:45:39;;;;;;;1.70;0.80;;;;;;;11.53;49.83;98486.34;236692;1193;138738;-59
2021/10/22 04:50:48;;;;;;;3.60;1.40;;;;;;;11.49;49.88;98498.17;236601;1193;140887;-63
2021/10/22 04:55:52;;;;;;;2.20;0.90;;;;;;;11.49;50.11;98505.31;236668;1193;138216;-58
2021/10/22 05:00:55;;;;;;;6.70;1.20;;;;;;;11.41;50.38;98508.71;236766;1193;138731;-59
2021/10/22 05:05:58;;;;;;;3.70;1.10;;;;;;;11.32;50.43;98516.83;236721;1193;138337;-58
2021/10/22 05:11:01;;;;;;;2.70;1.20;;;;;;;11.25;50.71;98522.52;236866;1193;138461;-59
2021/10/22 05:16:05;;;;;;;4.90;1.20;;;;;;;11.24;51.08;98535.36;236497;1193;138494;-59
2021/10/22 05:21:09;;;;;;;3.50;1.10;;;;;;;11.22;50.97;98543.89;236624;1193;139731;-60
2021/10/22 05:26:12;;;;;;;8.90;1.70;;;;;;;11.22;51.13;98558.77;236588;1194;140330;-58
2021/10/22 05:31:15;;;;;;;63.30;38.80;;;;;;;11.18;51.33;98573.84;236725;1193;138893;-58
2021/10/22 05:36:18;;;;;;;6.00;2.90;;;;;;;11.22;51.60;98581.14;236535;1187;138780;-60
2021/10/22 05:41:21;;;;;;;6.90;2.80;;;;;;;11.22;51.51;98586.80;236689;1193;138781;-60
2021/10/22 05:46:25;;;;;;;124.70;80.20;;;;;;;11.17;51.84;98603.51;236553;1193;138365;-59
2021/10/22 05:51:28;;;;;;;15.00;5.90;;;;;;;11.41;52.71;98608.55;236487;1193;139908;-58
2021/10/22 05:56:31;;;;;;;7.00;3.70;;;;;;;11.57;51.99;98617.30;236525;1193;138823;-60
2021/10/22 06:01:34;;;;;;;7.10;2.30;;;;;;;11.44;51.46;98628.95;236591;1193;138213;-60
2021/10/22 06:06:38;;;;;;;9.20;4.30;;;;;;;11.32;52.06;98635.65;236347;1193;138590;-60
2021/10/22 06:11:41;;;;;;;5.20;1.90;;;;;;;11.21;51.78;98646.21;236710;1193;138370;-59
2021/10/22 06:16:45;;;;;;;12.90;1.90;;;;;;;10.98;51.98;98651.91;236394;1193;138235;-60
2021/10/22 06:21:55;;;;;;;5.90;2.20;;;;;;;10.81;52.14;98657.16;236652;1193;138933;-61
2021/10/22 06:26:59;;;;;;;6.70;1.90;;;;;;;10.71;52.25;98668.52;236639;1193;138761;-60
2021/10/22 06:32:02;;;;;;;7.20;2.00;;;;;;;10.61;52.32;98677.66;236653;1193;138642;-62
2021/10/22 06:37:05;;;;;;;5.40;2.00;;;;;;;10.58;52.56;98680.70;236590;1193;138399;-60
2021/10/22 06:42:08;;;;;;;5.90;2.20;;;;;;;10.54;52.29;98682.20;236387;1193;138693;-60
2021/10/22 06:47:11;;;;;;;7.80;1.90;;;;;;;10.54;52.31;98689.00;236542;1194;139874;-60
2021/10/22 06:52:14;;;;;;;4.80;1.80;;;;;;;10.53;52.17;98690.85;236545;1193;139124;-60
2021/10/22 06:57:17;;;;;;;10.40;2.40;;;;;;;10.50;52.23;98698.31;236756;1193;139132;-59
2021/10/22 07:02:20;;;;;;;5.90;1.70;;;;;;;10.50;52.22;98702.60;236614;1193;141399;-60
2021/10/22 07:07:24;;;;;;;14.10;2.30;;;;;;;10.50;52.03;98710.05;236549;1193;137972;-59
2021/10/22 07:12:28;;;;;;;4.30;1.80;;;;;;;10.56;52.32;98712.44;236718;1193;138577;-60
2021/10/22 07:17:31;;;;;;;6.40;1.50;;;;;;;10.68;52.37;98714.31;236523;1193;138512;-60
2021/10/22 07:22:34;;;;;;;8.30;1.70;;;;;;;10.74;51.98;98713.02;236684;1193;137843;-59
2021/10/22 07:27:37;;;;;;;4.10;1.40;;;;;;;10.78;51.70;98720.88;236528;1193;138535;-62
2021/10/22 07:32:41;;;;;;;8.90;1.60;;;;;;;10.79;51.91;98728.61;236648;1193;138723;-62
2021/10/22 07:37:44;;;;;;;57.10;35.00;;;;;;;10.81;51.91;98733.67;236671;1193;139230;-59
2021/10/22 07:42:47;;;;;;;8.30;2.70;;;;;;;10.87;51.94;98736.40;236908;1193;140447;-61
2021/10/22 07:47:50;;;;;;;5.50;1.50;;;;;;;10.93;51.84;98736.71;236859;1192;138314;-61
2021/10/22 07:52:54;;;;;;;4.10;1.40;;;;;;;10.93;51.55;98735.45;236663;1193;138160;-62
2021/10/22 07:57:59;;;;;;;15.40;7.60;;;;;;;10.90;51.15;98744.91;236750;1193;138475;-61
2021/10/22 08:03:02;;;;;;;7.40;3.20;;;;;;;10.99;51.38;98744.27;237099;1192;138956;-64
2021/10/22 08:08:09;;;;;;;4.40;1.70;;;;;;;11.14;51.21;98736.39;236776;1193;139104;-62
2021/10/22 08:13:15;;;;;;;5.30;1.60;;;;;;;11.20;50.86;98750.30;236600;1193;138351;-60
2021/10/22 08:18:21;;;;;;;7.20;1.70;;;;;;;11.23;50.25;98768.39;236709;1193;138706;-63
2021/10/22 08:23:24;;;;;;;5.80;1.40;;;;;;;11.21;50.24;98761.27;236707;1193;137848;-60
2021/10/22 08:28:28;;;;;;;6.70;2.00;;;;;;;11.20;50.17;98760.23;236569;1193;138785;-60
2021/10/22 08:33:32;;;;;;;5.90;1.50;;;;;;;11.20;50.19;98758.84;236391;1193;138054;-63
2021/10/22 08:38:36;;;;;;;10.60;4.00;;;;;;;11.24;50.35;98756.13;236603;1193;139181;-63
2021/10/22 08:43:40;;;;;;;6.70;2.10;;;;;;;11.38;50.38;98750.68;236570;1193;139258;-63
2021/10/22 08:48:43;;;;;;;6.40;1.60;;;;;;;11.46;50.11;98747.27;236522;1193;138650;-64
2021/10/22 08:53:48;;;;;;;3.70;1.30;;;;;;;11.51;49.55;98755.96;236587;1193;141477;-62
2021/10/22 08:58:52;;;;;;;5.40;1.30;;;;;;;11.57;49.35;98760.48;236626;1193;139074;-63
2021/10/22 09:03:55;;;;;;;88.70;56.70;;;;;;;11.59;49.01;98761.45;236663;1193;138852;-61
2021/10/22 09:08:58;;;;;;;8.00;2.30;;;;;;;11.73;49.22;98764.18;236868;1192;139191;-61
2021/10/22 09:14:05;;;;;;;5.10;1.70;;;;;;;11.83;48.62;98755.83;236664;1193;141023;-62
2021/10/22 09:19:09;;;;;;;7.90;1.60;;;;;;;11.90;48.35;98757.66;236618;1193;139778;-62
2021/10/22 09:24:17;;;;;;;8.90;1.60;;;;;;;11.98;48.07;98767.92;236533;1195;139545;-62
2021/10/22 09:29:27;;;;;;;7.90;1.30;;;;;;;11.96;47.05;98774.42;236598;1193;138498;-61
2021/10/22 09:34:36;;;;;;;4.30;1.50;;;;;;;11.91;46.66;98770.71;236273;1193;138484;-60
2021/10/22 09:39:39;;;;;;;4.40;1.50;;;;;;;11.93;46.59;98772.39;236175;1193;138889;-59
2021/10/22 09:44:45;;;;;;;5.20;1.40;;;;;;;11.93;46.00;98778.10;236426;1193;139107;-61
2021/10/22 09:49:51;;;;;;;6.20;1.50;;;;;;;11.96;45.87;98776.46;236493;1193;139187;-61
2021/10/22 09:55:03;;;;;;;4.30;1.30;;;;;;;12.03;45.87;98777.19;236550;1193;138666;-59
2021/10/22 10:00:19;;;;;;;5.90;1.70;;;;;;;12.09;45.67;98775.32;236644;1193;138657;-61
2021/10/22 10:05:23;;;;;;;6.30;1.30;;;;;;;12.17;45.15;98776.55;235992;1193;139073;-61
2021/10/22 10:10:26;;;;;;;9.10;2.00;;;;;;;12.19;44.68;98761.62;236628;1193;138956;-60
2021/10/22 10:15:29;;;;;;;4.70;1.10;;;;;;;12.31;44.76;98760.39;236521;1193;139048;-60
2021/10/22 10:20:34;;;;;;;5.00;1.30;;;;;;;12.44;44.57;98754.39;236506;1193;138616;-62
2021/10/22 10:25:37;;;;;;;4.60;1.10;;;;;;;12.57;43.75;98761.11;236531;1193;138888;-60
2021/10/22 10:30:42;;;;;;;4.90;1.40;;;;;;;12.61;43.39;98757.80;236548;1193;141537;-62
2021/10/22 10:35:47;;;;;;;5.20;1.30;;;;;;;12.65;43.36;98754.31;236597;1193;138733;-60
2021/10/22 10:40:51;;;;;;;5.80;1.60;;;;;;;12.66;43.34;98748.32;236715;1193;138739;-62
2021/10/22 10:45:54;;;;;;;4.80;1.10;;;;;;;12.71;43.27;98741.02;236423;1193;138960;-61
2021/10/22 10:51:07;;;;;;;9.10;1.40;;;;;;;12.64;42.75;98736.20;236512;1193;140629;-63
2021/10/22 10:56:23;;;;;;;5.10;1.50;;;;;;;12.53;42.91;98732.08;236248;1193;138961;-62
2021/10/22 11:01:34;;;;;;;12.90;1.20;;;;;;;12.49;43.09;98724.88;236488;1193;139151;-60
2021/10/22 11:06:50;;;;;;;3.60;1.40;;;;;;;12.52;43.24;98710.58;236410;1194;139211;-60
2021/10/22 11:12:01;;;;;;;6.70;1.00;;;;;;;12.57;43.19;98708.08;236838;1193;139027;-60
2021/10/22 11:17:05;;;;;;;7.50;1.40;;;;;;;12.61;43.24;98712.09;236618;1193;139180;-62
2021/10/22 11:22:22;;;;;;;5.50;1.10;;;;;;;12.64;43.45;98703.08;236712;1193;138576;-59
2021/10/22 11:27:25;;;;;;;4.50;1.10;;;;;;;12.64;43.05;98702.20;236477;1193;138910;-60
2021/10/22 11:32:30;;;;;;;4.30;1.20;;;;;;;12.60;42.66;98692.77;236434;1193;139014;-61
2021/10/22 11:37:40;;;;;;;6.10;1.30;;;;;;;12.63;43.02;98679.88;236464;1193;140076;-60
2021/10/22 11:42:43;;;;;;;3.30;1.20;;;;;;;12.74;43.12;98671.50;236722;1193;138986;-60
2021/10/22 11:47:49;;;;;;;4.90;1.10;;;;;;;12.88;42.94;98673.64;236538;1193;139309;-61
2021/10/22 11:58:18;;;;;;;5.40;1.00;;;;;;;12.97;42.39;98646.99;236485;1193;139189;-60
2021/10/22 12:03:45;;;;;;;6.50;1.30;;;;;;;13.06;42.77;98641.12;236143;1193;138584;-60
2021/10/22 12:08:55;;;;;;;10.90;2.50;;;;;;;13.17;42.52;98644.17;236515;1193;138713;-61
2021/10/22 12:13:58;;;;;;;9.10;1.30;;;;;;;13.26;42.49;98638.31;236681;1193;142349;-59
2021/10/22 12:19:03;;;;;;;8.80;1.30;;;;;;;13.38;42.55;98630.55;236835;1193;139166;-61
2021/10/22 12:24:10;;;;;;;4.60;1.10;;;;;;;13.40;42.28;98625.80;236649;1193;138708;-61
2021/10/22 12:29:14;;;;;;;9.90;1.30;;;;;;;13.42;42.01;98608.01;236663;1193;139370;-63
2021/10/22 12:34:33;;;;;;;4.30;1.10;;;;;;;13.45;41.58;98609.19;236649;1193;138828;-62
2021/10/22 12:39:43;;;;;;;4.50;0.80;;;;;;;13.41;41.31;98588.98;236470;1193;140380;-62
2021/10/22 12:44:47;;;;;;;4.10;0.80;;;;;;;13.44;41.35;98587.48;236604;1193;138865;-62
2021/10/22 12:49:50;;;;;;;4.20;1.10;;;;;;;13.51;41.25;98588.89;236593;1193;138589;-62
2021/10/22 12:54:53;;;;;;;4.80;1.30;;;;;;;13.54;41.23;98589.69;236610;1193;139498;-61
2021/10/22 13:00:17;;;;;;;7.50;0.90;;;;;;;13.69;41.38;98586.73;236615;1193;138911;-63
2021/10/22 13:05:22;;;;;;;3.30;1.00;;;;;;;13.78;40.62;98591.48;236785;1193;139016;-62
2021/10/22 13:10:50;;;;;;;4.30;1.10;;;;;;;13.84;40.30;98596.13;236663;1193;139122;-62
2021/10/22 13:21:22;;;;;;;4.20;1.00;;;;;;;13.72;40.00;98593.02;236677;1192;138820;-62
2021/10/22 13:26:25;;;;;;;3.10;1.10;;;;;;;13.66;40.05;98589.41;236279;1193;138547;-62
2021/10/22 13:31:29;;;;;;;4.60;1.00;;;;;;;13.62;39.97;98586.00;236513;1193;138948;-62
2021/10/22 13:36:32;;;;;;;3.50;0.90;;;;;;;13.60;39.79;98580.14;236597;1193;138543;-63
2021/10/22 13:41:35;;;;;;;3.70;1.00;;;;;;;13.57;39.77;98589.33;236707;1193;138511;-60
2021/10/22 13:46:39;;;;;;;5.40;0.90;;;;;;;13.58;39.97;98587.66;236158;1193;138474;-61
2021/10/22 13:51:42;;;;;;;5.10;1.20;;;;;;;13.60;39.94;98590.88;236506;1193;139481;-61
2021/10/22 13:56:45;;;;;;;4.70;1.10;;;;;;;13.60;40.06;98593.86;236495;1187;139100;-62
2021/10/22 14:01:48;;;;;;;3.00;1.20;;;;;;;13.59;40.03;98591.09;236692;1186;139048;-62
2021/10/22 14:06:52;;;;;;;4.00;1.00;;;;;;;13.57;39.95;98595.71;236539;1193;140446;-62
2021/10/22 14:12:00;;;;;;;4.00;0.80;;;;;;;13.53;39.86;98591.60;236598;1193;138402;-62
2021/10/22 14:17:30;;;;;;;4.20;0.90;;;;;;;13.49;40.15;98589.59;236667;1193;138915;-60
2021/10/22 14:33:17;;;;;;;2.40;1.10;;;;;;;13.40;39.78;98591.77;236558;1193;138509;-61
2021/10/22 14:38:21;;;;;;;4.80;1.30;;;;;;;13.35;39.91;98594.79;236563;1193;138672;-61
2021/10/22 14:43:31;;;;;;;8.20;1.80;;;;;;;13.31;40.01;98600.54;236599;1194;138554;-60
2021/10/22 14:48:41;;;;;;;4.00;1.20;;;;;;;13.26;39.87;98604.27;236516;1193;138354;-60
2021/10/22 14:53:56;;;;;;;4.30;1.50;;;;;;;13.24;39.63;98613.85;236681;1193;139593;-61
2021/10/22 14:58:59;;;;;;;2.80;1.40;;;;;;;13.17;39.19;98603.91;236738;1193;139126;-61
2021/10/22 15:04:04;;;;;;;2.70;1.10;;;;;;;13.09;38.83;98602.95;236660;1193;162093;-61
2021/10/22 15:09:07;;;;;;;3.30;1.10;;;;;;;13.01;38.81;98602.08;236600;1193;138931;-61
2021/10/22 15:14:10;;;;;;;4.10;1.00;;;;;;;12.96;38.86;98603.97;236602;1193;138848;-60
2021/10/22 15:19:13;;;;;;;4.40;1.40;;;;;;;12.88;38.79;98605.80;236547;1193;138630;-60
2021/10/22 15:24:16;;;;;;;6.40;2.00;;;;;;;12.82;39.06;98601.48;236677;1193;138942;-62
2021/10/22 15:29:20;;;;;;;4.90;1.20;;;;;;;12.80;39.18;98608.79;236742;1193;138859;-63
2021/10/22 15:34:23;;;;;;;5.60;1.40;;;;;;;12.76;39.33;98609.80;236545;1193;139289;-63
2021/10/22 15:39:28;;;;;;;2.90;1.30;;;;;;;12.72;39.35;98616.30;235780;1193;139088;-59
2021/10/22 15:44:31;;;;;;;5.80;1.40;;;;;;;12.70;39.35;98618.77;236452;1193;138617;-60
2021/10/22 15:49:36;;;;;;;4.00;1.40;;;;;;;12.66;39.59;98627.17;236134;1193;139092;-60
2021/10/22 15:54:40;;;;;;;5.30;1.40;;;;;;;12.61;39.92;98631.48;236573;1193;138697;-61
2021/10/22 15:59:43;;;;;;;4.90;1.70;;;;;;;12.56;40.01;98625.04;236427;1193;139239;-60
2021/10/22 16:04:46;;;;;;;5.80;1.90;;;;;;;12.51;39.92;98622.71;236699;1193;139222;-60
2021/10/22 16:09:59;;;;;;;7.10;1.80;;;;;;;12.47;40.00;98628.96;236519;1193;139308;-60
2021/10/22 16:20:27;;;;;;;5.80;2.10;;;;;;;12.36;40.50;98616.43;236439;1193;138260;-61
2021/10/22 16:25:30;;;;;;;4.70;2.00;;;;;;;12.30;40.63;98619.57;236389;1193;139740;-60
2021/10/22 16:30:33;;;;;;;18.20;7.60;;;;;;;12.28;40.78;98628.64;236471;1193;138805;-60
2021/10/22 16:35:42;;;;;;;4.60;2.30;;;;;;;12.28;40.84;98632.83;236662;1179;139143;-63
2021/10/22 16:40:45;;;;;;;5.70;2.20;;;;;;;12.24;40.92;98626.25;236404;1193;138668;-62
2021/10/22 16:45:48;;;;;;;9.40;2.80;;;;;;;12.17;41.08;98630.84;236591;1193;138586;-64
2021/10/22 16:50:52;;;;;;;8.30;2.80;;;;;;;12.08;41.39;98629.92;236227;1193;138506;-63
2021/10/22 16:55:55;;;;;;;5.70;2.40;;;;;;;11.99;41.45;98637.71;236444;1193;139171;-61
2021/10/22 17:00:58;;;;;;;9.20;2.80;;;;;;;11.94;41.31;98633.14;236521;1193;138582;-62
2021/10/22 17:06:02;;;;;;;5.70;2.50;;;;;;;11.88;41.90;98635.15;236404;1190;141274;-64
2021/10/22 17:11:06;;;;;;;6.20;3.20;;;;;;;11.83;42.02;98642.58;236646;1193;138983;-63
2021/10/22 17:16:09;;;;;;;10.30;3.00;;;;;;;11.81;41.84;98648.94;236487;1193;138679;-65
2021/10/22 17:21:12;;;;;;;8.60;2.90;;;;;;;11.82;42.34;98656.21;236276;1193;141515;-63
2021/10/22 17:26:15;;;;;;;10.00;3.20;;;;;;;11.81;42.11;98661.39;236504;1193;138597;-63
2021/10/22 17:31:19;;;;;;;5.80;2.50;;;;;;;11.80;42.12;98669.09;236525;1193;138699;-63
2021/10/22 17:36:22;;;;;;;11.50;3.50;;;;;;;11.80;41.96;98672.09;236360;1193;139613;-64
2021/10/22 17:41:26;;;;;;;6.70;2.90;;;;;;;11.79;42.17;98665.98;236574;1193;138442;-63
2021/10/22 17:46:30;;;;;;;8.60;3.50;;;;;;;11.77;42.08;98677.12;236538;1194;139366;-63
2021/10/22 17:51:33;;;;;;;5.50;2.60;;;;;;;11.74;42.11;98681.98;236517;1193;138952;-63
2021/10/22 17:56:36;;;;;;;7.40;3.40;;;;;;;11.71;42.09;98692.88;236576;1193;139198;-62
2021/10/22 18:01:40;;;;;;;8.60;3.60;;;;;;;11.67;42.18;98700.31;236348;1193;139458;-64
2021/10/22 18:06:43;;;;;;;7.10;3.70;;;;;;;11.63;42.08;98703.58;236577;1193;138728;-64
2021/10/22 18:11:47;;;;;;;8.40;3.70;;;;;;;11.55;42.30;98710.70;236662;1193;138425;-63
2021/10/22 18:16:50;;;;;;;9.40;4.00;;;;;;;11.51;42.41;98712.08;236664;1193;138936;-61
2021/10/22 18:21:55;;;;;;;11.50;4.90;;;;;;;11.46;42.44;98716.33;236490;1193;138745;-63
2021/10/22 18:26:59;;;;;;;16.20;8.30;;;;;;;11.42;42.40;98724.84;236387;1193;138937;-62
2021/10/22 18:32:03;;;;;;;12.30;4.90;;;;;;;11.37;42.86;98731.73;236503;1193;139378;-63
2021/10/22 18:37:06;;;;;;;11.60;4.40;;;;;;;11.29;43.01;98729.08;236400;1194;138837;-62
2021/10/22 18:42:09;;;;;;;20.40;12.50;;;;;;;11.22;43.05;98732.79;236323;1193;138639;-61
2021/10/22 18:47:13;;;;;;;12.70;5.50;;;;;;;11.23;43.08;98744.42;236584;1193;139158;-63
2021/10/22 18:52:17;;;;;;;16.10;5.20;;;;;;;11.18;43.19;98750.61;236494;1193;138569;-63
2021/10/22 18:57:22;;;;;;;15.00;5.30;;;;;;;11.12;43.12;98764.38;236509;1193;138979;-63
2021/10/22 19:02:25;;;;;;;12.30;5.70;;;;;;;11.04;43.08;98772.53;236451;1193;139095;-64
2021/10/22 19:07:29;;;;;;;40.50;22.90;;;;;;;10.98;43.02;98773.85;236406;1193;138932;-59
2021/10/22 19:12:37;;;;;;;14.30;6.10;;;;;;;10.95;43.32;98769.58;236637;1193;139741;-62
2021/10/22 19:17:40;;;;;;;13.40;5.30;;;;;;;10.90;43.21;98778.81;236940;1193;138913;-63
2021/10/22 19:22:43;;;;;;;114.70;81.10;;;;;;;10.87;43.33;98789.16;236614;1193;139281;-61
2021/10/22 19:27:48;;;;;;;15.10;6.60;;;;;;;10.88;43.51;98790.46;236516;1193;139364;-63
2021/10/22 19:32:51;;;;;;;18.90;5.80;;;;;;;10.84;43.25;98798.20;236632;1193;139138;-63
2021/10/22 19:37:56;;;;;;;16.50;6.20;;;;;;;10.75;42.99;98807.15;236245;1193;139524;-63
2021/10/22 19:42:59;;;;;;;15.70;5.40;;;;;;;10.69;42.92;98806.86;236749;1192;139210;-60
2021/10/22 19:48:03;;;;;;;15.90;7.50;;;;;;;10.66;43.23;98805.61;236581;1193;138426;-59
2021/10/22 19:53:13;;;;;;;11.20;5.00;;;;;;;10.65;42.90;98801.09;236523;1193;139104;-63
2021/10/22 19:58:17;;;;;;;17.50;6.70;;;;;;;10.65;43.24;98813.69;236645;1193;138864;-63
2021/10/22 20:03:20;;;;;;;10.70;4.10;;;;;;;10.66;42.91;98818.58;236653;1192;138689;-62
2021/10/22 20:08:23;;;;;;;10.90;4.20;;;;;;;10.55;43.01;98819.08;236735;1193;140179;-63
2021/10/22 20:13:26;;;;;;;13.00;3.80;;;;;;;10.49;42.65;98826.45;236545;1193;138662;-62
2021/10/22 20:18:30;;;;;;;8.70;2.80;;;;;;;10.45;42.62;98825.85;236784;1192;139075;-66
2021/10/22 20:23:34;;;;;;;10.30;3.60;;;;;;;10.42;42.47;98823.71;236791;1193;139439;-63
2021/10/22 20:28:37;;;;;;;9.10;3.10;;;;;;;10.40;42.56;98827.20;236399;1193;138973;-63
2021/10/22 20:33:40;;;;;;;6.00;2.60;;;;;;;10.43;42.53;98823.48;236628;1193;138664;-62
2021/10/22 20:38:44;;;;;;;6.70;2.60;;;;;;;10.44;42.68;98829.25;236412;1193;138674;-62
2021/10/22 20:43:47;;;;;;;8.40;2.80;;;;;;;10.46;42.33;98828.77;236281;1193;138947;-63
2021/10/22 20:59:18;;;;;;;8.40;2.50;;;;;;;10.49;42.25;98841.33;236425;1193;139462;-64
2021/10/22 21:04:21;;;;;;;7.00;3.10;;;;;;;10.50;42.21;98840.05;236685;1193;138517;-66
2021/10/22 21:09:27;;;;;;;8.20;2.40;;;;;;;10.49;42.08;98847.34;236349;1193;139440;-64
2021/10/22 21:14:31;;;;;;;13.00;2.80;;;;;;;10.50;42.01;98857.03;236662;1192;138630;-62
2021/10/22 21:19:35;;;;;;;8.40;2.60;;;;;;;10.49;42.06;98847.88;236641;1193;140916;-66
2021/10/22 21:24:38;;;;;;;5.50;2.20;;;;;;;10.47;41.69;98848.79;236681;1193;138862;-62
2021/10/22 21:29:41;;;;;;;6.30;2.10;;;;;;;10.43;41.77;98852.52;236778;1193;138198;-63
2021/10/22 21:34:44;;;;;;;8.70;2.40;;;;;;;10.42;41.83;98863.93;236620;1193;139058;-63
2021/10/22 21:39:48;;;;;;;8.40;2.60;;;;;;;10.38;41.65;98858.33;236640;1193;139035;-63
2021/10/22 21:44:51;;;;;;;5.10;2.20;;;;;;;10.37;41.98;98859.13;236537;1193;138945;-63
2021/10/22 21:49:54;;;;;;;6.40;1.70;;;;;;;10.33;41.66;98866.66;236327;1193;138839;-63
2021/10/22 21:54:57;;;;;;;7.70;2.00;;;;;;;10.30;41.80;98872.89;236199;1193;138300;-63
2021/10/22 22:00:00;;;;;;;7.10;2.30;;;;;;;10.28;41.80;98871.41;236630;1193;138913;-63
2021/10/22 22:05:10;;;;;;;8.30;2.30;;;;;;;10.27;41.97;98875.02;236465;1193;140099;-63
2021/10/22 22:10:13;;;;;;;8.50;2.10;;;;;;;10.25;42.06;98862.57;236621;1193;138578;-64
2021/10/22 22:15:17;;;;;;;5.60;1.80;;;;;;;10.22;41.99;98870.52;236653;1193;138878;-64
2021/10/22 22:20:20;;;;;;;4.60;1.90;;;;;;;10.19;41.93;98863.23;236632;1193;138906;-65
2021/10/22 22:25:23;;;;;;;5.50;1.90;;;;;;;10.15;42.11;98865.27;236724;1193;138791;-64
2021/10/22 22:30:27;;;;;;;7.20;1.70;;;;;;;10.10;42.10;98860.81;236682;1193;139068;-62
2021/10/22 22:35:32;;;;;;;4.10;1.80;;;;;;;10.07;42.39;98870.17;236258;1193;139525;-64
2021/10/22 22:40:35;;;;;;;5.10;1.90;;;;;;;10.06;42.30;98870.45;236625;1193;139622;-61
2021/10/22 22:45:38;;;;;;;6.10;1.90;;;;;;;10.04;42.40;98874.84;236735;1193;138830;-63
2021/10/22 22:50:42;;;;;;;7.20;2.00;;;;;;;10.04;42.16;98881.23;236718;1193;139602;-61
2021/10/22 22:55:45;;;;;;;6.50;1.90;;;;;;;10.04;42.39;98887.95;236312;1193;141502;-63
2021/10/22 23:00:48;;;;;;;7.90;2.20;;;;;;;10.04;42.39;98876.95;236033;1193;139554;-63
2021/10/22 23:05:51;;;;;;;6.50;1.90;;;;;;;10.00;42.77;98881.85;236464;1193;138464;-63
2021/10/22 23:10:54;;;;;;;8.50;2.00;;;;;;;9.97;42.74;98879.91;236502;1193;138287;-64
2021/10/22 23:15:57;;;;;;;8.70;2.10;;;;;;;9.92;42.62;98877.01;236614;1193;138476;-60
2021/10/22 23:21:03;;;;;;;6.20;1.90;;;;;;;9.88;42.65;98880.98;235919;1193;140978;-65
2021/10/22 23:26:06;;;;;;;6.60;2.00;;;;;;;9.84;43.01;98887.39;236003;1193;138481;-64
2021/10/22 23:31:10;;;;;;;8.00;2.00;;;;;;;9.82;43.07;98897.48;236162;1193;138411;-62
2021/10/22 23:36:13;;;;;;;4.80;2.00;;;;;;;9.80;43.16;98904.16;236217;1193;138062;-63
2021/10/22 23:41:16;;;;;;;6.90;1.80;;;;;;;9.78;43.59;98912.60;236550;1193;138995;-64
2021/10/22 23:46:19;;;;;;;8.10;1.80;;;;;;;9.78;43.47;98923.77;236602;1193;138646;-64
2021/10/22 23:51:23;;;;;;;6.50;1.60;;;;;;;9.76;43.77;98934.89;236417;1194;139339;-63
2021/10/22 23:56:26;;;;;;;6.90;1.40;;;;;;;9.76;43.47;98945.66;236628;1193;138549;-63
